createdAt,value
2023-02-24T00:00:40.487Z,0.00
2023-02-24T00:01:40.448Z,0.00
2023-02-24T00:02:40.465Z,0.00
2023-02-24T00:03:40.497Z,0.00
2023-02-24T00:04:40.431Z,0.00
2023-02-24T00:05:40.404Z,0.00
2023-02-24T00:06:40.410Z,0.00
2023-02-24T00:07:40.388Z,0.00
2023-02-24T00:08:40.375Z,0.00
2023-02-24T00:09:40.390Z,0.00
2023-02-24T00:10:40.364Z,0.00
2023-02-24T00:11:40.358Z,0.00
2023-02-24T00:12:40.335Z,0.00
2023-02-24T00:13:40.320Z,0.00
2023-02-24T00:14:40.343Z,0.00
2023-02-24T00:15:40.306Z,0.00
2023-02-24T00:16:40.411Z,0.00
2023-02-24T00:17:40.288Z,0.00
2023-02-24T00:18:40.271Z,0.00
2023-02-24T00:19:40.260Z,0.00
2023-02-24T00:20:40.285Z,0.00
2023-02-24T00:21:40.250Z,0.00
2023-02-24T00:22:40.232Z,0.00
2023-02-24T00:23:40.210Z,0.00
2023-02-24T00:24:40.254Z,0.00
2023-02-24T00:25:40.205Z,0.00
2023-02-24T00:26:40.208Z,0.00
2023-02-24T00:27:40.194Z,0.00
2023-02-24T00:28:40.169Z,0.00
2023-02-24T00:29:40.174Z,0.00
2023-02-24T00:30:40.156Z,0.00
2023-02-24T00:31:40.378Z,0.00
2023-02-24T00:32:40.249Z,0.00
2023-02-24T00:33:40.117Z,0.00
2023-02-24T00:34:40.133Z,0.00
2023-02-24T00:35:40.097Z,0.00
2023-02-24T00:36:40.106Z,0.00
2023-02-24T00:37:40.099Z,0.00
2023-02-24T00:38:40.070Z,0.00
2023-02-24T00:39:40.063Z,0.00
2023-02-24T00:40:40.070Z,0.00
2023-02-24T00:41:40.049Z,0.00
2023-02-24T00:42:40.045Z,0.00
2023-02-24T00:43:40.026Z,0.00
2023-02-24T00:44:40.074Z,0.00
2023-02-24T00:45:40.001Z,0.00
2023-02-24T00:46:40.074Z,0.00
2023-02-24T00:47:40.022Z,0.00
2023-02-24T00:48:39.979Z,0.00
2023-02-24T00:49:39.964Z,0.00
2023-02-24T00:50:40.001Z,0.00
2023-02-24T00:51:39.944Z,0.00
2023-02-24T00:52:39.932Z,0.00
2023-02-24T00:53:39.930Z,0.00
2023-02-24T00:54:39.912Z,0.00
2023-02-24T00:55:39.915Z,0.00
2023-02-24T00:56:39.922Z,0.00
2023-02-24T00:57:39.909Z,0.00
2023-02-24T00:58:39.872Z,0.00
2023-02-24T00:59:39.863Z,0.00
2023-02-24T01:00:39.853Z,0.00
2023-02-24T01:01:39.917Z,0.00
2023-02-24T01:02:39.844Z,0.00
2023-02-24T01:03:39.893Z,0.00
2023-02-24T01:04:39.830Z,0.00
2023-02-24T01:05:39.799Z,0.00
2023-02-24T01:06:39.799Z,0.00
2023-02-24T01:07:39.777Z,0.00
2023-02-24T01:08:39.773Z,0.00
2023-02-24T01:09:39.774Z,0.00
2023-02-24T01:10:39.776Z,0.00
2023-02-24T01:11:39.782Z,0.00
2023-02-24T01:12:39.754Z,0.00
2023-02-24T01:13:39.716Z,0.00
2023-02-24T01:14:39.713Z,0.00
2023-02-24T01:15:39.753Z,0.00
2023-02-24T01:16:39.713Z,0.00
2023-02-24T01:17:39.674Z,0.00
2023-02-24T01:18:39.665Z,0.00
2023-02-24T01:19:39.653Z,0.00
2023-02-24T01:20:39.660Z,0.00
2023-02-24T01:21:39.638Z,0.00
2023-02-24T01:22:39.632Z,0.00
2023-02-24T01:23:39.618Z,0.00
2023-02-24T01:24:39.623Z,0.00
2023-02-24T01:25:39.628Z,0.00
2023-02-24T01:26:39.588Z,0.00
2023-02-24T01:27:39.576Z,0.00
2023-02-24T01:28:39.567Z,0.00
2023-02-24T01:29:39.726Z,0.00
2023-02-24T01:30:39.546Z,0.00
2023-02-24T01:31:39.682Z,0.00
2023-02-24T01:32:39.667Z,0.00
2023-02-24T01:33:39.518Z,0.00
2023-02-24T01:34:39.526Z,0.00
2023-02-24T01:35:39.519Z,0.00
2023-02-24T01:36:39.502Z,0.00
2023-02-24T01:37:39.470Z,0.00
2023-02-24T01:38:39.466Z,0.00
2023-02-24T01:39:39.456Z,0.00
2023-02-24T01:40:39.457Z,0.00
2023-02-24T01:41:39.437Z,0.00
2023-02-24T01:42:39.443Z,0.00
2023-02-24T01:43:39.412Z,0.00
2023-02-24T01:44:39.404Z,0.00
2023-02-24T01:45:39.402Z,0.00
2023-02-24T01:46:39.431Z,0.00
2023-02-24T01:47:39.395Z,0.00
2023-02-24T01:48:39.370Z,0.00
2023-02-24T01:49:39.355Z,0.00
2023-02-24T01:50:39.346Z,0.00
2023-02-24T01:51:39.351Z,0.00
2023-02-24T01:52:39.336Z,0.00
2023-02-24T01:53:39.330Z,0.00
2023-02-24T01:54:39.329Z,0.00
2023-02-24T01:55:39.299Z,0.00
2023-02-24T01:56:39.282Z,0.00
2023-02-24T01:57:39.312Z,0.00
2023-02-24T01:58:39.289Z,0.00
2023-02-24T01:59:39.255Z,0.00
2023-02-24T02:00:39.248Z,0.00
2023-02-24T02:01:39.366Z,0.00
2023-02-24T02:02:39.414Z,0.00
2023-02-24T02:03:39.215Z,0.00
2023-02-24T02:04:39.232Z,0.00
2023-02-24T02:05:39.202Z,0.00
2023-02-24T02:06:39.186Z,0.00
2023-02-24T02:07:39.193Z,0.00
2023-02-24T02:08:39.174Z,0.00
2023-02-24T02:09:39.158Z,0.00
2023-02-24T02:10:39.196Z,0.00
2023-02-24T02:11:39.136Z,0.00
2023-02-24T02:12:39.128Z,0.00
2023-02-24T02:13:39.167Z,0.00
2023-02-24T02:14:39.104Z,0.00
2023-02-24T02:15:39.094Z,0.00
2023-02-24T02:16:39.116Z,0.00
2023-02-24T02:17:39.080Z,0.00
2023-02-24T02:18:39.065Z,0.00
2023-02-24T02:19:39.058Z,0.00
2023-02-24T02:20:39.060Z,0.00
2023-02-24T02:21:39.029Z,0.00
2023-02-24T02:22:39.037Z,0.00
2023-02-24T02:23:39.009Z,0.00
2023-02-24T02:24:39.028Z,0.00
2023-02-24T02:25:39.019Z,0.00
2023-02-24T02:26:38.989Z,0.00
2023-02-24T02:27:38.975Z,0.00
2023-02-24T02:28:38.991Z,0.00
2023-02-24T02:29:38.951Z,0.00
2023-02-24T02:30:38.999Z,0.00
2023-02-24T02:31:39.115Z,0.00
2023-02-24T02:32:39.098Z,0.00
2023-02-24T02:33:38.917Z,0.00
2023-02-24T02:34:38.894Z,0.00
2023-02-24T02:35:38.890Z,0.00
2023-02-24T02:36:38.893Z,0.00
2023-02-24T02:37:41.005Z,0.00
2023-02-24T02:38:38.863Z,0.00
2023-02-24T02:39:38.867Z,0.00
2023-02-24T02:40:38.853Z,0.00
2023-02-24T02:41:38.829Z,0.00
2023-02-24T02:42:38.814Z,0.00
2023-02-24T02:43:38.813Z,0.00
2023-02-24T02:44:38.798Z,0.00
2023-02-24T02:45:38.830Z,0.00
2023-02-24T02:46:38.776Z,0.00
2023-02-24T02:47:38.770Z,0.00
2023-02-24T02:48:38.753Z,0.00
2023-02-24T02:49:38.752Z,0.00
2023-02-24T02:50:38.760Z,0.00
2023-02-24T02:51:38.902Z,0.00
2023-02-24T02:52:38.715Z,0.00
2023-02-24T02:53:38.702Z,0.00
2023-02-24T02:54:38.704Z,0.00
2023-02-24T02:55:38.685Z,0.00
2023-02-24T02:56:38.670Z,0.00
2023-02-24T02:57:38.694Z,0.00
2023-02-24T02:58:38.652Z,0.00
2023-02-24T02:59:38.638Z,0.00
2023-02-24T03:00:38.629Z,0.00
2023-02-24T03:01:38.629Z,0.00
2023-02-24T03:02:38.607Z,0.00
2023-02-24T03:03:38.616Z,0.00
2023-02-24T03:04:38.721Z,0.00
2023-02-24T03:05:38.574Z,0.00
2023-02-24T03:06:38.562Z,0.00
2023-02-24T03:07:38.570Z,0.00
2023-02-24T03:08:38.564Z,0.00
2023-02-24T03:09:38.539Z,0.00
2023-02-24T03:10:38.525Z,0.00
2023-02-24T03:11:38.555Z,0.00
2023-02-24T03:12:38.505Z,0.00
2023-02-24T03:13:38.513Z,0.00
2023-02-24T03:14:38.483Z,0.00
2023-02-24T03:15:38.487Z,0.00
2023-02-24T03:16:38.521Z,0.00
2023-02-24T03:17:38.473Z,0.00
2023-02-24T03:18:38.447Z,0.00
2023-02-24T03:19:38.454Z,0.00
2023-02-24T03:20:38.421Z,0.00
2023-02-24T03:21:38.439Z,0.00
2023-02-24T03:22:38.418Z,0.00
2023-02-24T03:23:38.416Z,0.00
2023-02-24T03:24:38.395Z,0.00
2023-02-24T03:25:38.383Z,0.00
2023-02-24T03:26:38.381Z,0.00
2023-02-24T03:27:38.382Z,0.00
2023-02-24T03:28:38.350Z,0.00
2023-02-24T03:29:38.338Z,0.00
2023-02-24T03:30:38.369Z,0.00
2023-02-24T03:31:38.398Z,0.00
2023-02-24T03:32:38.472Z,0.00
2023-02-24T03:33:38.311Z,0.00
2023-02-24T03:34:38.314Z,0.00
2023-02-24T03:35:38.283Z,0.00
2023-02-24T03:36:38.267Z,0.00
2023-02-24T03:37:38.277Z,0.00
2023-02-24T03:38:38.264Z,0.00
2023-02-24T03:39:38.243Z,0.00
2023-02-24T03:40:38.263Z,0.00
2023-02-24T03:41:38.221Z,0.00
2023-02-24T03:42:38.214Z,0.00
2023-02-24T03:43:38.198Z,0.00
2023-02-24T03:44:38.210Z,0.00
2023-02-24T03:45:38.203Z,0.00
2023-02-24T03:46:38.180Z,0.00
2023-02-24T03:47:38.167Z,0.00
2023-02-24T03:48:38.158Z,0.00
2023-02-24T03:49:38.149Z,0.00
2023-02-24T03:50:38.208Z,0.00
2023-02-24T03:51:38.132Z,0.00
2023-02-24T03:52:38.130Z,0.00
2023-02-24T03:53:38.111Z,0.00
2023-02-24T03:54:38.088Z,0.00
2023-02-24T03:55:38.080Z,0.00
2023-02-24T03:56:38.067Z,0.00
2023-02-24T03:57:38.061Z,0.00
2023-02-24T03:58:38.064Z,0.00
2023-02-24T03:59:38.045Z,0.00
2023-02-24T04:00:38.038Z,0.00
2023-02-24T04:01:38.019Z,0.00
2023-02-24T04:02:38.062Z,0.00
2023-02-24T04:03:38.017Z,0.00
2023-02-24T04:04:38.066Z,0.00
2023-02-24T04:05:37.996Z,0.00
2023-02-24T04:06:37.973Z,0.00
2023-02-24T04:07:37.957Z,0.00
2023-02-24T04:08:37.948Z,0.00
2023-02-24T04:09:37.944Z,0.00
2023-02-24T04:10:37.937Z,0.00
2023-02-24T04:11:37.936Z,0.00
2023-02-24T04:12:38.049Z,0.00
2023-02-24T04:13:37.900Z,0.00
2023-02-24T04:14:37.886Z,0.00
2023-02-24T04:15:38.012Z,0.00
2023-02-24T04:16:37.870Z,0.00
2023-02-24T04:17:37.867Z,0.00
2023-02-24T04:18:38.976Z,0.00
2023-02-24T04:19:37.856Z,0.00
2023-02-24T04:20:37.828Z,0.00
2023-02-24T04:21:37.817Z,0.00
2023-02-24T04:22:37.826Z,0.00
2023-02-24T04:23:37.794Z,0.00
2023-02-24T04:24:37.788Z,0.00
2023-02-24T04:25:37.793Z,0.00
2023-02-24T04:26:37.765Z,0.00
2023-02-24T04:27:37.770Z,0.00
2023-02-24T04:28:37.762Z,0.00
2023-02-24T04:29:37.744Z,0.00
2023-02-24T04:30:37.739Z,0.00
2023-02-24T04:31:37.872Z,0.00
2023-02-24T04:32:37.850Z,0.00
2023-02-24T04:33:37.731Z,0.00
2023-02-24T04:34:37.686Z,0.00
2023-02-24T04:35:37.698Z,0.00
2023-02-24T04:36:37.659Z,0.00
2023-02-24T04:37:37.653Z,0.00
2023-02-24T04:38:37.645Z,0.00
2023-02-24T04:39:37.651Z,0.00
2023-02-24T04:40:37.650Z,0.00
2023-02-24T04:41:37.612Z,0.00
2023-02-24T04:42:37.630Z,0.00
2023-02-24T04:43:37.606Z,0.00
2023-02-24T04:44:37.594Z,0.00
2023-02-24T04:45:37.604Z,0.00
2023-02-24T04:46:37.579Z,0.00
2023-02-24T04:47:37.554Z,0.00
2023-02-24T04:48:37.543Z,0.00
2023-02-24T04:49:37.551Z,0.00
2023-02-24T04:50:37.525Z,0.00
2023-02-24T04:51:37.533Z,0.00
2023-02-24T04:52:37.513Z,0.00
2023-02-24T04:53:37.496Z,0.00
2023-02-24T04:54:37.494Z,0.00
2023-02-24T04:55:37.506Z,0.00
2023-02-24T04:56:37.462Z,0.00
2023-02-24T04:57:37.451Z,0.00
2023-02-24T04:58:37.479Z,0.00
2023-02-24T04:59:37.439Z,0.00
2023-02-24T05:00:37.418Z,0.00
2023-02-24T05:01:37.443Z,0.00
2023-02-24T05:02:37.412Z,0.00
2023-02-24T05:03:37.458Z,0.00
2023-02-24T05:04:37.424Z,0.00
2023-02-24T05:05:37.369Z,0.00
2023-02-24T05:06:37.374Z,0.00
2023-02-24T05:07:37.352Z,0.00
2023-02-24T05:08:37.357Z,0.00
2023-02-24T05:09:37.340Z,0.00
2023-02-24T05:10:37.319Z,0.00
2023-02-24T05:11:37.315Z,0.00
2023-02-24T05:12:37.304Z,0.00
2023-02-24T05:13:37.319Z,0.00
2023-02-24T05:14:37.322Z,0.00
2023-02-24T05:15:37.275Z,0.00
2023-02-24T05:16:37.304Z,0.00
2023-02-24T05:17:37.270Z,0.00
2023-02-24T05:18:37.442Z,0.00
2023-02-24T05:19:37.262Z,0.00
2023-02-24T05:20:37.225Z,0.00
2023-02-24T05:21:37.230Z,0.00
2023-02-24T05:22:37.217Z,0.00
2023-02-24T05:23:37.214Z,0.00
2023-02-24T05:24:37.182Z,0.00
2023-02-24T05:25:37.168Z,0.00
2023-02-24T05:26:37.201Z,0.00
2023-02-24T05:27:37.254Z,0.00
2023-02-24T05:28:37.138Z,0.00
2023-02-24T05:29:37.161Z,0.00
2023-02-24T05:30:37.172Z,0.00
2023-02-24T05:31:37.370Z,0.00
2023-02-24T05:32:37.171Z,0.00
2023-02-24T05:33:37.087Z,0.00
2023-02-24T05:34:37.089Z,0.00
2023-02-24T05:35:37.107Z,0.00
2023-02-24T05:36:37.063Z,0.00
2023-02-24T05:37:37.043Z,0.00
2023-02-24T05:38:37.045Z,0.00
2023-02-24T05:39:37.041Z,0.00
2023-02-24T05:40:37.053Z,0.00
2023-02-24T05:41:37.021Z,0.00
2023-02-24T05:42:37.011Z,0.00
2023-02-24T05:43:36.987Z,0.00
2023-02-24T05:44:37.014Z,0.00
2023-02-24T05:45:36.971Z,0.00
2023-02-24T05:46:37.038Z,0.00
2023-02-24T05:47:36.978Z,0.00
2023-02-24T05:48:36.932Z,0.00
2023-02-24T05:49:36.933Z,0.00
2023-02-24T05:50:36.927Z,0.00
2023-02-24T05:51:36.936Z,0.00
2023-02-24T05:52:36.901Z,0.00
2023-02-24T05:53:36.882Z,0.00
2023-02-24T05:54:36.869Z,0.00
2023-02-24T05:55:36.883Z,0.00
2023-02-24T05:56:36.810Z,1.00
2023-02-24T05:57:36.860Z,0.00
2023-02-24T05:58:36.814Z,1.00
2023-02-24T05:59:36.769Z,1.00
2023-02-24T06:00:36.767Z,1.00
2023-02-24T06:01:36.841Z,0.00
2023-02-24T06:02:36.785Z,2.00
2023-02-24T06:03:36.733Z,1.00
2023-02-24T06:04:36.726Z,1.00
2023-02-24T06:05:36.720Z,1.00
2023-02-24T06:06:36.746Z,0.00
2023-02-24T06:07:36.754Z,0.00
2023-02-24T06:08:36.724Z,4.00
2023-02-24T06:09:36.670Z,4.00
2023-02-24T06:10:36.675Z,2.00
2023-02-24T06:11:36.728Z,1.00
2023-02-24T06:12:36.645Z,2.00
2023-02-24T06:13:36.629Z,3.00
2023-02-24T06:14:36.625Z,4.00
2023-02-24T06:15:36.613Z,4.00
2023-02-24T06:16:36.717Z,5.00
2023-02-24T06:17:36.639Z,5.00
2023-02-24T06:18:36.577Z,6.00
2023-02-24T06:19:36.567Z,6.00
2023-02-24T06:20:36.560Z,6.00
2023-02-24T06:21:36.549Z,7.00
2023-02-24T06:22:36.556Z,7.00
2023-02-24T06:23:36.521Z,7.00
2023-02-24T06:24:36.529Z,10.00
2023-02-24T06:25:36.530Z,14.00
2023-02-24T06:26:36.496Z,12.00
2023-02-24T06:27:36.490Z,15.00
2023-02-24T06:28:36.480Z,12.00
2023-02-24T06:29:36.468Z,13.00
2023-02-24T06:30:36.493Z,18.00
2023-02-24T06:31:36.520Z,20.00
2023-02-24T06:32:36.693Z,21.00
2023-02-24T06:33:36.424Z,25.00
2023-02-24T06:34:36.438Z,21.00
2023-02-24T06:35:36.411Z,22.00
2023-02-24T06:36:36.401Z,29.00
2023-02-24T06:37:36.403Z,31.00
2023-02-24T06:38:36.398Z,32.00
2023-02-24T06:39:37.019Z,38.00
2023-02-24T06:40:36.365Z,38.00
2023-02-24T06:41:36.353Z,38.00
2023-02-24T06:42:36.340Z,40.00
2023-02-24T06:43:36.328Z,41.00
2023-02-24T06:44:36.346Z,40.00
2023-02-24T06:45:36.361Z,39.00
2023-02-24T06:46:36.303Z,38.00
2023-02-24T06:47:36.303Z,46.00
2023-02-24T06:48:36.282Z,39.00
2023-02-24T06:49:36.278Z,49.00
2023-02-24T06:50:36.274Z,39.00
2023-02-24T06:51:36.247Z,58.00
2023-02-24T06:52:36.237Z,60.00
2023-02-24T06:53:36.249Z,63.00
2023-02-24T06:54:36.420Z,66.00
2023-02-24T06:55:36.206Z,65.00
2023-02-24T06:56:36.197Z,65.00
2023-02-24T06:57:36.186Z,65.00
2023-02-24T06:58:36.182Z,66.00
2023-02-24T06:59:36.185Z,66.00
2023-02-24T07:00:36.172Z,66.00
2023-02-24T07:01:36.243Z,74.00
2023-02-24T07:02:36.169Z,72.00
2023-02-24T07:03:36.124Z,74.00
2023-02-24T07:04:36.216Z,78.00
2023-02-24T07:05:36.109Z,82.00
2023-02-24T07:06:36.101Z,82.00
2023-02-24T07:07:36.085Z,82.00
2023-02-24T07:08:36.106Z,83.00
2023-02-24T07:09:36.078Z,89.00
2023-02-24T07:10:36.062Z,93.00
2023-02-24T07:11:36.046Z,89.00
2023-02-24T07:12:36.044Z,95.00
2023-02-24T07:13:36.021Z,101.00
2023-02-24T07:14:36.040Z,111.00
2023-02-24T07:15:36.028Z,116.00
2023-02-24T07:16:36.073Z,124.00
2023-02-24T07:17:36.017Z,137.00
2023-02-24T07:18:35.980Z,137.00
2023-02-24T07:19:35.962Z,142.00
2023-02-24T07:20:35.966Z,145.00
2023-02-24T07:21:35.946Z,153.00
2023-02-24T07:22:35.930Z,153.00
2023-02-24T07:23:36.073Z,161.00
2023-02-24T07:24:36.054Z,169.00
2023-02-24T07:25:35.909Z,178.00
2023-02-24T07:26:35.893Z,174.00
2023-02-24T07:27:35.894Z,182.00
2023-02-24T07:28:35.877Z,187.00
2023-02-24T07:29:35.887Z,197.00
2023-02-24T07:30:36.037Z,195.00
2023-02-24T07:31:35.956Z,203.00
2023-02-24T07:32:35.883Z,208.00
2023-02-24T07:33:35.823Z,202.00
2023-02-24T07:34:35.827Z,188.00
2023-02-24T07:35:35.835Z,179.00
2023-02-24T07:36:35.799Z,171.00
2023-02-24T07:37:35.781Z,172.00
2023-02-24T07:38:35.781Z,177.00
2023-02-24T07:39:35.762Z,185.00
2023-02-24T07:40:35.771Z,184.00
2023-02-24T07:41:35.743Z,189.00
2023-02-24T07:42:35.757Z,185.00
2023-02-24T07:43:35.720Z,175.00
2023-02-24T07:44:35.712Z,169.00
2023-02-24T07:45:35.745Z,161.00
2023-02-24T07:46:35.819Z,162.00
2023-02-24T07:47:35.743Z,164.00
2023-02-24T07:48:35.698Z,170.00
2023-02-24T07:49:35.689Z,181.00
2023-02-24T07:50:35.650Z,186.00
2023-02-24T07:51:35.693Z,174.00
2023-02-24T07:52:35.625Z,163.00
2023-02-24T07:53:35.624Z,155.00
2023-02-24T07:54:35.624Z,158.00
2023-02-24T07:55:35.600Z,163.00
2023-02-24T07:56:35.603Z,150.00
2023-02-24T07:57:35.589Z,159.00
2023-02-24T07:58:35.567Z,174.00
2023-02-24T07:59:35.550Z,173.00
2023-02-24T08:00:35.555Z,176.00
2023-02-24T08:01:35.555Z,177.00
2023-02-24T08:02:35.559Z,182.00
2023-02-24T08:03:35.514Z,184.00
2023-02-24T08:04:35.504Z,188.00
2023-02-24T08:05:35.564Z,212.00
2023-02-24T08:06:35.511Z,225.00
2023-02-24T08:07:35.474Z,231.00
2023-02-24T08:08:35.474Z,236.00
2023-02-24T08:09:35.460Z,237.00
2023-02-24T08:10:35.463Z,234.00
2023-02-24T08:11:35.447Z,222.00
2023-02-24T08:12:35.453Z,202.00
2023-02-24T08:13:35.437Z,189.00
2023-02-24T08:14:35.423Z,175.00
2023-02-24T08:15:35.486Z,163.00
2023-02-24T08:16:35.393Z,154.00
2023-02-24T08:17:35.397Z,156.00
2023-02-24T08:18:35.382Z,156.00
2023-02-24T08:19:35.360Z,150.00
2023-02-24T08:20:35.355Z,150.00
2023-02-24T08:21:35.347Z,148.00
2023-02-24T08:22:35.344Z,149.00
2023-02-24T08:23:35.315Z,166.00
2023-02-24T08:24:35.311Z,168.00
2023-02-24T08:25:35.970Z,181.00
2023-02-24T08:26:35.301Z,186.00
2023-02-24T08:27:35.308Z,192.00
2023-02-24T08:28:35.274Z,227.00
2023-02-24T08:29:35.255Z,243.00
2023-02-24T08:30:35.304Z,235.00
2023-02-24T08:31:35.308Z,229.00
2023-02-24T08:32:35.335Z,235.00
2023-02-24T08:33:35.231Z,277.00
2023-02-24T08:34:35.205Z,308.00
2023-02-24T08:35:35.206Z,322.00
2023-02-24T08:36:35.195Z,307.00
2023-02-24T08:37:35.180Z,296.00
2023-02-24T08:38:35.183Z,280.00
2023-02-24T08:39:35.154Z,275.00
2023-02-24T08:40:35.144Z,269.00
2023-02-24T08:41:35.130Z,257.00
2023-02-24T08:42:35.135Z,257.00
2023-02-24T08:43:35.111Z,254.00
2023-02-24T08:44:35.131Z,261.00
2023-02-24T08:45:35.108Z,257.00
2023-02-24T08:46:35.121Z,247.00
2023-02-24T08:47:35.076Z,232.00
2023-02-24T08:48:35.081Z,233.00
2023-02-24T08:49:35.069Z,221.00
2023-02-24T08:50:35.049Z,230.00
2023-02-24T08:51:35.368Z,222.00
2023-02-24T08:52:35.035Z,241.00
2023-02-24T08:53:35.016Z,241.00
2023-02-24T08:54:35.038Z,234.00
2023-02-24T08:55:35.001Z,247.00
2023-02-24T08:56:35.237Z,220.00
2023-02-24T08:57:34.980Z,213.00
2023-02-24T08:58:34.977Z,205.00
2023-02-24T08:59:34.967Z,204.00
2023-02-24T09:00:35.035Z,198.00
2023-02-24T09:01:35.158Z,230.00
2023-02-24T09:02:34.928Z,217.00
2023-02-24T09:03:34.932Z,230.00
2023-02-24T09:04:34.927Z,239.00
2023-02-24T09:05:34.913Z,240.00
2023-02-24T09:06:34.898Z,247.00
2023-02-24T09:07:34.882Z,251.00
2023-02-24T09:08:34.874Z,271.00
2023-02-24T09:09:34.876Z,265.00
2023-02-24T09:10:34.866Z,251.00
2023-02-24T09:11:34.843Z,251.00
2023-02-24T09:12:34.851Z,273.00
2023-02-24T09:13:34.828Z,283.00
2023-02-24T09:14:34.824Z,303.00
2023-02-24T09:15:34.794Z,331.00
2023-02-24T09:16:34.899Z,331.00
2023-02-24T09:17:34.798Z,329.00
2023-02-24T09:18:34.793Z,307.00
2023-02-24T09:19:34.767Z,288.00
2023-02-24T09:20:34.754Z,274.00
2023-02-24T09:21:34.737Z,262.00
2023-02-24T09:22:34.761Z,270.00
2023-02-24T09:23:34.732Z,275.00
2023-02-24T09:24:34.730Z,254.00
2023-02-24T09:25:34.698Z,258.00
2023-02-24T09:26:34.706Z,259.00
2023-02-24T09:27:34.712Z,312.00
2023-02-24T09:28:34.760Z,266.00
2023-02-24T09:29:34.673Z,241.00
2023-02-24T09:30:34.758Z,345.00
2023-02-24T09:31:36.771Z,228.00
2023-02-24T09:32:34.861Z,294.00
2023-02-24T09:33:34.636Z,233.00
2023-02-24T09:34:34.621Z,235.00
2023-02-24T09:35:34.600Z,291.00
2023-02-24T09:36:34.589Z,316.00
2023-02-24T09:37:34.578Z,308.00
2023-02-24T09:38:34.593Z,301.00
2023-02-24T09:39:34.565Z,330.00
2023-02-24T09:40:34.562Z,273.00
2023-02-24T09:41:35.014Z,416.00
2023-02-24T09:42:36.251Z,186.00
2023-02-24T09:43:34.534Z,417.00
2023-02-24T09:44:34.561Z,253.00
2023-02-24T09:45:34.631Z,309.00
2023-02-24T09:46:34.690Z,507.00
2023-02-24T09:51:22.741Z,259.00
2023-02-24T09:52:23.182Z,179.00
2023-02-24T09:53:23.197Z,390.00
2023-02-24T09:54:23.171Z,235.00
2023-02-24T09:55:23.160Z,343.00
2023-02-24T09:56:23.156Z,235.00
2023-02-24T09:57:23.200Z,512.00
2023-02-24T09:58:27.026Z,191.00
2023-02-24T09:59:23.135Z,542.00
2023-02-24T10:00:23.132Z,253.00
2023-02-24T10:01:23.588Z,496.00
2023-02-24T10:02:23.107Z,284.00
2023-02-24T10:03:23.085Z,370.00
2023-02-24T10:04:23.268Z,306.00
2023-02-24T10:05:23.061Z,423.00
2023-02-24T10:06:23.054Z,321.00
2023-02-24T10:07:23.043Z,397.00
2023-02-24T10:08:23.044Z,261.00
2023-02-24T10:09:23.050Z,341.00
2023-02-24T10:10:23.011Z,247.00
2023-02-24T10:11:23.253Z,499.00
2023-02-24T10:12:22.989Z,575.00
2023-02-24T10:13:23.003Z,401.00
2023-02-24T10:14:24.173Z,529.00
2023-02-24T10:15:22.971Z,517.00
2023-02-24T10:16:23.044Z,738.00
2023-02-24T10:17:22.943Z,524.00
2023-02-24T10:18:22.952Z,433.00
2023-02-24T10:19:22.930Z,438.00
2023-02-24T10:20:22.933Z,685.00
2023-02-24T10:21:23.276Z,441.00
2023-02-24T10:22:22.908Z,461.00
2023-02-24T10:23:22.886Z,598.00
2023-02-24T10:24:22.937Z,599.00
2023-02-24T10:25:22.868Z,439.00
2023-02-24T10:26:22.876Z,612.00
2023-02-24T10:27:22.844Z,433.00
2023-02-24T10:28:22.863Z,534.00
2023-02-24T10:29:22.886Z,724.00
2023-02-24T10:30:22.835Z,348.00
2023-02-24T10:31:23.402Z,574.00
2023-02-24T10:32:23.016Z,703.00
2023-02-24T10:33:22.798Z,436.00
2023-02-24T10:34:24.132Z,512.00
2023-02-24T10:35:22.788Z,397.00
2023-02-24T10:36:22.758Z,408.00
2023-02-24T10:37:28.732Z,667.00
2023-02-24T10:38:22.766Z,572.00
2023-02-24T10:39:22.732Z,456.00
2023-02-24T10:40:22.723Z,641.00
2023-02-24T10:41:23.052Z,489.00
2023-02-24T10:42:22.727Z,603.00
2023-02-24T10:43:22.744Z,564.00
2023-02-24T10:44:22.706Z,338.00
2023-02-24T10:45:23.390Z,554.00
2023-02-24T10:46:35.022Z,685.00
2023-02-24T10:47:22.663Z,355.00
2023-02-24T10:48:29.506Z,605.00
2023-02-24T10:49:22.636Z,544.00
2023-02-24T10:50:22.658Z,595.00
2023-02-24T10:51:23.110Z,586.00
2023-02-24T10:52:22.608Z,610.00
2023-02-24T10:53:22.623Z,398.00
2023-02-24T10:54:22.601Z,483.00
2023-02-24T10:55:22.576Z,469.00
2023-02-24T10:56:23.049Z,376.00
2023-02-24T10:57:22.558Z,416.00
2023-02-24T10:58:22.543Z,464.00
2023-02-24T10:59:22.655Z,374.00
2023-02-24T11:00:22.535Z,383.00
2023-02-24T11:01:22.902Z,368.00
2023-02-24T11:02:22.537Z,255.00
2023-02-24T11:03:32.425Z,545.00
2023-02-24T11:04:22.489Z,332.00
2023-02-24T11:05:22.490Z,337.00
2023-02-24T11:06:22.463Z,406.00
2023-02-24T11:07:22.463Z,226.00
2023-02-24T11:08:22.448Z,458.00
2023-02-24T11:09:22.447Z,244.00
2023-02-24T11:10:22.431Z,601.00
2023-02-24T11:11:22.846Z,267.00
2023-02-24T11:12:22.542Z,594.00
2023-02-24T11:13:22.404Z,416.00
2023-02-24T11:14:22.387Z,362.00
2023-02-24T11:15:22.390Z,409.00
2023-02-24T11:16:22.428Z,397.00
2023-02-24T11:17:22.368Z,494.00
2023-02-24T11:18:22.348Z,458.00
2023-02-24T11:19:22.370Z,450.00
2023-02-24T11:20:22.333Z,599.00
2023-02-24T11:21:22.763Z,467.00
2023-02-24T11:22:22.311Z,624.00
2023-02-24T11:23:22.308Z,480.00
2023-02-24T11:24:22.286Z,674.00
2023-02-24T11:25:22.296Z,336.00
2023-02-24T11:26:22.278Z,460.00
2023-02-24T11:27:22.325Z,457.00
2023-02-24T11:28:22.252Z,327.00
2023-02-24T11:29:22.253Z,400.00
2023-02-24T11:30:22.251Z,487.00
2023-02-24T11:31:22.701Z,375.00
2023-02-24T11:32:22.398Z,485.00
2023-02-24T11:33:22.225Z,363.00
2023-02-24T11:34:22.216Z,235.00
2023-02-24T11:35:22.211Z,272.00
2023-02-24T11:36:22.173Z,423.00
2023-02-24T11:37:22.160Z,447.00
2023-02-24T11:38:22.164Z,309.00
2023-02-24T11:39:22.136Z,325.00
2023-02-24T11:40:22.135Z,328.00
2023-02-24T11:41:22.496Z,234.00
2023-02-24T11:42:22.114Z,390.00
2023-02-24T11:43:22.118Z,306.00
2023-02-24T11:44:22.105Z,304.00
2023-02-24T11:45:22.079Z,242.00
2023-02-24T11:46:22.144Z,267.00
2023-02-24T11:47:22.072Z,300.00
2023-02-24T11:48:22.079Z,300.00
2023-02-24T11:49:22.046Z,281.00
2023-02-24T11:50:22.040Z,299.00
2023-02-24T11:51:22.325Z,284.00
2023-02-24T11:52:22.011Z,231.00
2023-02-24T11:53:22.024Z,194.00
2023-02-24T11:54:22.006Z,170.00
2023-02-24T11:55:21.988Z,334.00
2023-02-24T11:56:21.983Z,269.00
2023-02-24T11:57:21.975Z,286.00
2023-02-24T11:58:21.957Z,327.00
2023-02-24T11:59:22.324Z,337.00
2023-02-24T12:00:22.336Z,344.00
2023-02-24T12:01:22.387Z,325.00
2023-02-24T12:02:21.922Z,200.00
2023-02-24T12:03:21.923Z,324.00
2023-02-24T12:04:21.904Z,240.00
2023-02-24T12:05:22.294Z,458.00
2023-02-24T12:06:21.876Z,205.00
2023-02-24T12:07:22.023Z,424.00
2023-02-24T12:08:21.873Z,281.00
2023-02-24T12:09:22.364Z,336.00
2023-02-24T12:10:22.177Z,290.00
2023-02-24T12:11:22.261Z,412.00
2023-02-24T12:12:22.313Z,295.00
2023-02-24T12:13:22.241Z,354.00
2023-02-24T12:14:21.802Z,301.00
2023-02-24T12:15:22.276Z,356.00
2023-02-24T12:16:21.842Z,408.00
2023-02-24T12:17:21.769Z,432.00
2023-02-24T12:18:21.761Z,370.00
2023-02-24T12:19:21.761Z,379.00
2023-02-24T12:20:21.746Z,259.00
2023-02-24T12:21:22.719Z,307.00
2023-02-24T12:22:21.722Z,287.00
2023-02-24T12:23:21.717Z,214.00
2023-02-24T12:24:21.712Z,395.00
2023-02-24T12:25:21.743Z,311.00
2023-02-24T12:26:21.725Z,387.00
2023-02-24T12:27:21.706Z,376.00
2023-02-24T12:28:21.666Z,304.00
2023-02-24T12:29:21.657Z,302.00
2023-02-24T12:30:21.641Z,225.00
2023-02-24T12:31:22.247Z,313.00
2023-02-24T12:32:21.752Z,473.00
2023-02-24T12:33:21.638Z,299.00
2023-02-24T12:34:21.612Z,367.00
2023-02-24T12:35:21.609Z,328.00
2023-02-24T12:36:21.604Z,360.00
2023-02-24T12:37:21.597Z,437.00
2023-02-24T12:38:21.562Z,398.00
2023-02-24T12:39:21.579Z,250.00
2023-02-24T12:40:21.548Z,301.00
2023-02-24T12:41:21.843Z,459.00
2023-02-24T12:42:21.528Z,282.00
2023-02-24T12:43:21.520Z,297.00
2023-02-24T12:44:21.523Z,386.00
2023-02-24T12:45:21.512Z,250.00
2023-02-24T12:46:21.559Z,280.00
2023-02-24T12:47:21.476Z,417.00
2023-02-24T12:48:21.464Z,332.00
2023-02-24T12:49:21.468Z,321.00
2023-02-24T12:50:21.459Z,304.00
2023-02-24T12:51:21.874Z,228.00
2023-02-24T12:52:21.434Z,366.00
2023-02-24T12:53:21.421Z,287.00
2023-02-24T12:54:21.401Z,346.00
2023-02-24T12:55:21.410Z,312.00
2023-02-24T12:56:21.395Z,254.00
2023-02-24T12:57:21.382Z,303.00
2023-02-24T12:58:21.368Z,330.00